Terminal Aerodrome Forecast
Issued by NWS

Home | Current Version | Previous Version | Text Only | Print | Product List | Glossary On
Versions: 1 2 3 4 5 6 7 8 9 10 11 12 13 14 15 16 17 18 19 20 21 22 23 24 25 26 27
000
FTUS44 KTSA 261100
TAFXNA
TAF
KXNA 261139Z 2612/2712 21008KT P6SM BKN012 OVC025
     FM261600 22007KT P6SM BKN025
     FM261800 21008KT P6SM BKN250
     FM270400 19005KT P6SM BKN150 PROB30 2704/2708 4SM -TSRA
      BKN050CB=

USA.gov is the U.S. government's official web portal to all federal, state and local government web resources and services.